sensor_id;sensor_type;location;lat;lon;timestamp;temperature;humidity
9486;DHT22;4781;48.776;9.200;2023-06-26T00:00:52;21.00;76.00
9486;DHT22;4781;48.776;9.200;2023-06-26T00:03:20;20.90;75.70
9486;DHT22;4781;48.776;9.200;2023-06-26T00:05:51;20.90;76.30
9486;DHT22;4781;48.776;9.200;2023-06-26T00:08:19;20.80;75.60
9486;DHT22;4781;48.776;9.200;2023-06-26T00:10:48;20.80;76.20
9486;DHT22;4781;48.776;9.200;2023-06-26T00:13:17;20.70;77.40
9486;DHT22;4781;48.776;9.200;2023-06-26T00:15:46;20.60;77.50
9486;DHT22;4781;48.776;9.200;2023-06-26T00:18:14;20.60;77.70
9486;DHT22;4781;48.776;9.200;2023-06-26T00:20:43;20.50;77.10
9486;DHT22;4781;48.776;9.200;2023-06-26T00:23:12;20.50;78.20
9486;DHT22;4781;48.776;9.200;2023-06-26T00:25:42;20.40;78.50
9486;DHT22;4781;48.776;9.200;2023-06-26T00:28:11;20.40;77.70
9486;DHT22;4781;48.776;9.200;2023-06-26T00:30:39;20.40;78.50
9486;DHT22;4781;48.776;9.200;2023-06-26T00:33:08;20.30;78.40
9486;DHT22;4781;48.776;9.200;2023-06-26T00:35:36;20.40;77.80
9486;DHT22;4781;48.776;9.200;2023-06-26T00:38:04;20.40;77.60
9486;DHT22;4781;48.776;9.200;2023-06-26T00:40:33;20.30;78.20
9486;DHT22;4781;48.776;9.200;2023-06-26T00:43:02;20.30;79.00
9486;DHT22;4781;48.776;9.200;2023-06-26T00:45:30;20.20;79.10
9486;DHT22;4781;48.776;9.200;2023-06-26T00:47:59;20.10;79.80
9486;DHT22;4781;48.776;9.200;2023-06-26T00:50:28;20.10;79.90
9486;DHT22;4781;48.776;9.200;2023-06-26T00:52:56;20.10;80.50
9486;DHT22;4781;48.776;9.200;2023-06-26T00:55:27;20.10;80.30
9486;DHT22;4781;48.776;9.200;2023-06-26T00:57:55;20.00;80.40
9486;DHT22;4781;48.776;9.200;2023-06-26T01:00:24;20.10;80.20
9486;DHT22;4781;48.776;9.200;2023-06-26T01:02:52;20.10;79.80
9486;DHT22;4781;48.776;9.200;2023-06-26T01:05:23;20.10;79.70
9486;DHT22;4781;48.776;9.200;2023-06-26T01:07:51;20.10;80.20
9486;DHT22;4781;48.776;9.200;2023-06-26T01:10:19;20.10;80.10
9486;DHT22;4781;48.776;9.200;2023-06-26T01:12:48;20.00;80.30
9486;DHT22;4781;48.776;9.200;2023-06-26T01:15:16;20.00;80.40
9486;DHT22;4781;48.776;9.200;2023-06-26T01:17:45;20.00;80.00
9486;DHT22;4781;48.776;9.200;2023-06-26T01:20:14;19.90;80.20
9486;DHT22;4781;48.776;9.200;2023-06-26T01:22:48;19.90;81.00
9486;DHT22;4781;48.776;9.200;2023-06-26T01:28:39;20.40;79.40
9486;DHT22;4781;48.776;9.200;2023-06-26T01:31:11;20.30;79.90
9486;DHT22;4781;48.776;9.200;2023-06-26T01:33:41;20.30;78.30
9486;DHT22;4781;48.776;9.200;2023-06-26T01:36:10;20.30;78.60
9486;DHT22;4781;48.776;9.200;2023-06-26T01:38:39;20.20;79.00
9486;DHT22;4781;48.776;9.200;2023-06-26T01:41:07;20.30;78.90
9486;DHT22;4781;48.776;9.200;2023-06-26T01:49:25;20.10;79.90
9486;DHT22;4781;48.776;9.200;2023-06-26T01:57:26;19.90;80.70
9486;DHT22;4781;48.776;9.200;2023-06-26T01:59:55;19.80;80.80
9486;DHT22;4781;48.776;9.200;2023-06-26T02:02:25;19.80;80.80
9486;DHT22;4781;48.776;9.200;2023-06-26T02:04:53;19.80;81.10
9486;DHT22;4781;48.776;9.200;2023-06-26T02:07:22;19.80;80.80
9486;DHT22;4781;48.776;9.200;2023-06-26T02:09:50;19.70;81.70
9486;DHT22;4781;48.776;9.200;2023-06-26T02:12:18;19.60;81.70
9486;DHT22;4781;48.776;9.200;2023-06-26T02:14:47;19.60;81.90
9486;DHT22;4781;48.776;9.200;2023-06-26T02:17:16;19.60;82.20
9486;DHT22;4781;48.776;9.200;2023-06-26T02:19:44;19.60;82.30
9486;DHT22;4781;48.776;9.200;2023-06-26T02:22:16;19.50;82.90
9486;DHT22;4781;48.776;9.200;2023-06-26T02:24:45;19.40;82.30
9486;DHT22;4781;48.776;9.200;2023-06-26T02:27:13;19.40;83.10
9486;DHT22;4781;48.776;9.200;2023-06-26T02:29:42;19.30;82.90
9486;DHT22;4781;48.776;9.200;2023-06-26T02:32:10;19.30;83.80
9486;DHT22;4781;48.776;9.200;2023-06-26T02:34:38;19.20;84.10
9486;DHT22;4781;48.776;9.200;2023-06-26T02:37:07;19.20;83.50
9486;DHT22;4781;48.776;9.200;2023-06-26T02:39:36;19.30;83.90
9486;DHT22;4781;48.776;9.200;2023-06-26T02:42:05;19.30;83.40
9486;DHT22;4781;48.776;9.200;2023-06-26T02:44:33;19.30;83.50
9486;DHT22;4781;48.776;9.200;2023-06-26T02:47:02;19.30;83.50
9486;DHT22;4781;48.776;9.200;2023-06-26T02:49:30;19.30;83.50
9486;DHT22;4781;48.776;9.200;2023-06-26T02:51:59;19.30;83.20
9486;DHT22;4781;48.776;9.200;2023-06-26T02:54:27;19.20;84.00
9486;DHT22;4781;48.776;9.200;2023-06-26T02:56:55;19.30;83.50
9486;DHT22;4781;48.776;9.200;2023-06-26T02:59:24;19.40;82.90
9486;DHT22;4781;48.776;9.200;2023-06-26T03:01:52;19.50;82.90
9486;DHT22;4781;48.776;9.200;2023-06-26T03:04:21;19.60;82.80
9486;DHT22;4781;48.776;9.200;2023-06-26T03:06:49;19.60;82.60
9486;DHT22;4781;48.776;9.200;2023-06-26T03:09:18;19.70;82.40
9486;DHT22;4781;48.776;9.200;2023-06-26T03:11:46;19.70;82.40
9486;DHT22;4781;48.776;9.200;2023-06-26T03:14:14;19.70;82.20
9486;DHT22;4781;48.776;9.200;2023-06-26T03:16:43;19.70;82.10
9486;DHT22;4781;48.776;9.200;2023-06-26T03:19:11;19.70;82.40
9486;DHT22;4781;48.776;9.200;2023-06-26T03:21:40;19.60;82.60
9486;DHT22;4781;48.776;9.200;2023-06-26T03:24:08;19.70;83.00
9486;DHT22;4781;48.776;9.200;2023-06-26T03:26:36;19.70;82.80
9486;DHT22;4781;48.776;9.200;2023-06-26T03:29:05;19.70;82.90
9486;DHT22;4781;48.776;9.200;2023-06-26T03:31:33;19.70;82.80
9486;DHT22;4781;48.776;9.200;2023-06-26T03:34:02;19.80;82.70
9486;DHT22;4781;48.776;9.200;2023-06-26T03:36:30;19.80;82.60
9486;DHT22;4781;48.776;9.200;2023-06-26T03:38:58;20.00;82.30
9486;DHT22;4781;48.776;9.200;2023-06-26T03:41:27;19.90;82.60
9486;DHT22;4781;48.776;9.200;2023-06-26T03:43:56;20.00;82.60
9486;DHT22;4781;48.776;9.200;2023-06-26T03:46:26;20.00;82.60
9486;DHT22;4781;48.776;9.200;2023-06-26T03:48:54;20.00;82.70
9486;DHT22;4781;48.776;9.200;2023-06-26T03:51:22;20.00;82.70
9486;DHT22;4781;48.776;9.200;2023-06-26T03:53:51;20.00;82.70
9486;DHT22;4781;48.776;9.200;2023-06-26T03:56:19;20.00;82.40
9486;DHT22;4781;48.776;9.200;2023-06-26T03:58:48;20.10;82.10
9486;DHT22;4781;48.776;9.200;2023-06-26T04:01:16;20.10;82.40
9486;DHT22;4781;48.776;9.200;2023-06-26T04:03:46;20.10;82.20
9486;DHT22;4781;48.776;9.200;2023-06-26T04:06:14;20.20;82.30
9486;DHT22;4781;48.776;9.200;2023-06-26T04:08:43;20.20;82.80
9486;DHT22;4781;48.776;9.200;2023-06-26T04:11:11;20.10;82.60
9486;DHT22;4781;48.776;9.200;2023-06-26T04:13:40;20.00;84.40
9486;DHT22;4781;48.776;9.200;2023-06-26T04:16:08;20.00;84.40
9486;DHT22;4781;48.776;9.200;2023-06-26T04:18:38;20.00;85.70
9486;DHT22;4781;48.776;9.200;2023-06-26T04:21:12;19.90;86.20
9486;DHT22;4781;48.776;9.200;2023-06-26T04:23:41;19.90;85.80
9486;DHT22;4781;48.776;9.200;2023-06-26T04:26:09;19.90;85.80
9486;DHT22;4781;48.776;9.200;2023-06-26T04:28:39;19.90;86.40
9486;DHT22;4781;48.776;9.200;2023-06-26T04:31:08;19.90;88.00
9486;DHT22;4781;48.776;9.200;2023-06-26T04:33:37;19.90;88.10
9486;DHT22;4781;48.776;9.200;2023-06-26T04:36:06;19.90;87.20
9486;DHT22;4781;48.776;9.200;2023-06-26T04:38:35;19.90;88.10
9486;DHT22;4781;48.776;9.200;2023-06-26T04:41:03;20.00;88.10
9486;DHT22;4781;48.776;9.200;2023-06-26T04:43:31;20.00;88.70
9486;DHT22;4781;48.776;9.200;2023-06-26T04:46:01;20.00;88.50
9486;DHT22;4781;48.776;9.200;2023-06-26T04:48:32;20.10;89.60
9486;DHT22;4781;48.776;9.200;2023-06-26T04:51:05;20.10;88.90
9486;DHT22;4781;48.776;9.200;2023-06-26T04:53:34;20.20;89.10
9486;DHT22;4781;48.776;9.200;2023-06-26T04:56:06;20.30;88.90
9486;DHT22;4781;48.776;9.200;2023-06-26T04:58:41;20.40;86.50
9486;DHT22;4781;48.776;9.200;2023-06-26T05:01:11;20.60;87.30
9486;DHT22;4781;48.776;9.200;2023-06-26T05:03:42;20.70;87.70
9486;DHT22;4781;48.776;9.200;2023-06-26T05:06:14;20.90;85.00
9486;DHT22;4781;48.776;9.200;2023-06-26T05:08:45;21.00;86.30
9486;DHT22;4781;48.776;9.200;2023-06-26T05:11:33;21.00;88.40
9486;DHT22;4781;48.776;9.200;2023-06-26T05:14:05;21.20;83.90
9486;DHT22;4781;48.776;9.200;2023-06-26T05:16:39;21.30;85.10
9486;DHT22;4781;48.776;9.200;2023-06-26T05:19:14;21.40;83.80
9486;DHT22;4781;48.776;9.200;2023-06-26T05:21:53;21.50;83.70
9486;DHT22;4781;48.776;9.200;2023-06-26T05:24:29;21.60;84.00
9486;DHT22;4781;48.776;9.200;2023-06-26T05:27:01;21.70;83.50
9486;DHT22;4781;48.776;9.200;2023-06-26T05:29:34;21.90;84.70
9486;DHT22;4781;48.776;9.200;2023-06-26T05:32:10;22.00;82.10
9486;DHT22;4781;48.776;9.200;2023-06-26T05:34:40;22.20;83.80
9486;DHT22;4781;48.776;9.200;2023-06-26T05:37:09;22.40;83.70
9486;DHT22;4781;48.776;9.200;2023-06-26T05:39:45;22.60;81.00
9486;DHT22;4781;48.776;9.200;2023-06-26T05:42:17;22.70;85.10
9486;DHT22;4781;48.776;9.200;2023-06-26T05:44:53;22.80;85.10
9486;DHT22;4781;48.776;9.200;2023-06-26T05:47:27;22.90;85.60
9486;DHT22;4781;48.776;9.200;2023-06-26T05:50:00;23.10;85.10
9486;DHT22;4781;48.776;9.200;2023-06-26T05:52:30;23.20;84.30
9486;DHT22;4781;48.776;9.200;2023-06-26T05:55:21;23.30;84.10
9486;DHT22;4781;48.776;9.200;2023-06-26T05:57:51;23.50;83.80
9486;DHT22;4781;48.776;9.200;2023-06-26T06:00:21;23.60;84.50
9486;DHT22;4781;48.776;9.200;2023-06-26T06:03:03;23.70;83.50
9486;DHT22;4781;48.776;9.200;2023-06-26T06:05:35;23.80;83.60
9486;DHT22;4781;48.776;9.200;2023-06-26T06:08:08;24.00;83.50
9486;DHT22;4781;48.776;9.200;2023-06-26T06:10:40;24.10;83.10
9486;DHT22;4781;48.776;9.200;2023-06-26T06:16:00;24.50;83.00
9486;DHT22;4781;48.776;9.200;2023-06-26T06:18:47;24.70;83.60
9486;DHT22;4781;48.776;9.200;2023-06-26T06:21:35;24.80;83.20
9486;DHT22;4781;48.776;9.200;2023-06-26T06:27:29;25.10;81.70
9486;DHT22;4781;48.776;9.200;2023-06-26T06:30:09;25.30;81.00
9486;DHT22;4781;48.776;9.200;2023-06-26T06:33:21;25.50;81.50
9486;DHT22;4781;48.776;9.200;2023-06-26T06:35:55;25.60;81.90
9486;DHT22;4781;48.776;9.200;2023-06-26T06:38:20;25.80;82.20
9486;DHT22;4781;48.776;9.200;2023-06-26T06:41:25;26.00;81.60
9486;DHT22;4781;48.776;9.200;2023-06-26T06:43:54;26.20;80.40
9486;DHT22;4781;48.776;9.200;2023-06-26T06:46:27;26.30;79.00
9486;DHT22;4781;48.776;9.200;2023-06-26T06:52:50;26.50;80.00
9486;DHT22;4781;48.776;9.200;2023-06-26T06:55:19;26.60;78.20
9486;DHT22;4781;48.776;9.200;2023-06-26T06:58:01;26.70;78.40
9486;DHT22;4781;48.776;9.200;2023-06-26T07:00:45;27.20;80.00
9486;DHT22;4781;48.776;9.200;2023-06-26T07:03:50;27.80;77.90
9486;DHT22;4781;48.776;9.200;2023-06-26T07:06:26;28.50;76.50
9486;DHT22;4781;48.776;9.200;2023-06-26T07:09:15;29.10;75.60
9486;DHT22;4781;48.776;9.200;2023-06-26T07:11:45;28.80;73.30
9486;DHT22;4781;48.776;9.200;2023-06-26T07:14:41;28.60;75.50
9486;DHT22;4781;48.776;9.200;2023-06-26T07:17:28;28.90;76.40
9486;DHT22;4781;48.776;9.200;2023-06-26T07:20:23;28.90;75.00
9486;DHT22;4781;48.776;9.200;2023-06-26T07:23:07;28.70;75.70
9486;DHT22;4781;48.776;9.200;2023-06-26T07:25:55;28.20;74.40
9486;DHT22;4781;48.776;9.200;2023-06-26T07:28:47;28.00;74.20
9486;DHT22;4781;48.776;9.200;2023-06-26T07:31:33;27.90;75.10
9486;DHT22;4781;48.776;9.200;2023-06-26T07:37:26;28.00;74.70
9486;DHT22;4781;48.776;9.200;2023-06-26T07:40:14;28.00;74.90
9486;DHT22;4781;48.776;9.200;2023-06-26T07:43:06;28.10;74.30
9486;DHT22;4781;48.776;9.200;2023-06-26T07:45:47;28.20;74.90
9486;DHT22;4781;48.776;9.200;2023-06-26T07:48:17;28.30;75.10
9486;DHT22;4781;48.776;9.200;2023-06-26T07:50:54;28.30;74.20
9486;DHT22;4781;48.776;9.200;2023-06-26T07:56:24;28.50;72.10
9486;DHT22;4781;48.776;9.200;2023-06-26T08:05:12;29.00;73.50
9486;DHT22;4781;48.776;9.200;2023-06-26T08:55:17;31.70;65.60
9486;DHT22;4781;48.776;9.200;2023-06-26T08:57:48;31.70;63.50
9486;DHT22;4781;48.776;9.200;2023-06-26T09:00:17;31.80;63.40
9486;DHT22;4781;48.776;9.200;2023-06-26T09:02:46;31.90;65.30
9486;DHT22;4781;48.776;9.200;2023-06-26T09:05:15;32.10;64.70
9486;DHT22;4781;48.776;9.200;2023-06-26T09:07:43;32.00;62.10
9486;DHT22;4781;48.776;9.200;2023-06-26T09:10:11;32.10;63.30
9486;DHT22;4781;48.776;9.200;2023-06-26T09:12:40;32.10;63.20
9486;DHT22;4781;48.776;9.200;2023-06-26T09:15:08;32.20;62.10
9486;DHT22;4781;48.776;9.200;2023-06-26T09:17:40;31.90;63.40
9486;DHT22;4781;48.776;9.200;2023-06-26T09:20:09;31.70;62.60
9486;DHT22;4781;48.776;9.200;2023-06-26T09:22:41;32.10;64.40
9486;DHT22;4781;48.776;9.200;2023-06-26T09:25:11;32.30;62.60
9486;DHT22;4781;48.776;9.200;2023-06-26T09:27:40;32.40;61.30
9486;DHT22;4781;48.776;9.200;2023-06-26T09:30:10;32.60;62.20
9486;DHT22;4781;48.776;9.200;2023-06-26T09:32:40;32.80;61.70
9486;DHT22;4781;48.776;9.200;2023-06-26T09:35:08;33.00;60.50
9486;DHT22;4781;48.776;9.200;2023-06-26T09:37:37;32.80;61.00
9486;DHT22;4781;48.776;9.200;2023-06-26T09:40:05;32.60;61.70
9486;DHT22;4781;48.776;9.200;2023-06-26T09:42:34;32.50;61.00
9486;DHT22;4781;48.776;9.200;2023-06-26T09:45:03;32.40;60.10
9486;DHT22;4781;48.776;9.200;2023-06-26T09:47:33;32.20;60.20
9486;DHT22;4781;48.776;9.200;2023-06-26T09:50:05;32.20;61.50
9486;DHT22;4781;48.776;9.200;2023-06-26T09:52:34;32.20;62.40
9486;DHT22;4781;48.776;9.200;2023-06-26T09:55:09;32.10;60.70
9486;DHT22;4781;48.776;9.200;2023-06-26T09:57:39;32.00;60.40
9486;DHT22;4781;48.776;9.200;2023-06-26T10:00:08;32.00;61.40
9486;DHT22;4781;48.776;9.200;2023-06-26T10:02:38;32.00;61.70
9486;DHT22;4781;48.776;9.200;2023-06-26T10:05:07;32.00;61.20
9486;DHT22;4781;48.776;9.200;2023-06-26T10:07:36;31.90;62.10
9486;DHT22;4781;48.776;9.200;2023-06-26T10:10:06;31.90;61.90
9486;DHT22;4781;48.776;9.200;2023-06-26T10:12:35;31.70;62.70
9486;DHT22;4781;48.776;9.200;2023-06-26T10:15:04;31.70;63.00
9486;DHT22;4781;48.776;9.200;2023-06-26T10:17:37;31.70;62.70
9486;DHT22;4781;48.776;9.200;2023-06-26T10:20:08;31.80;64.40
9486;DHT22;4781;48.776;9.200;2023-06-26T10:22:43;31.90;63.00
9486;DHT22;4781;48.776;9.200;2023-06-26T10:25:16;31.80;63.90
9486;DHT22;4781;48.776;9.200;2023-06-26T10:27:49;31.80;64.20
9486;DHT22;4781;48.776;9.200;2023-06-26T10:30:31;32.10;65.30
9486;DHT22;4781;48.776;9.200;2023-06-26T10:33:01;31.80;64.00
9486;DHT22;4781;48.776;9.200;2023-06-26T10:35:31;31.50;63.80
9486;DHT22;4781;48.776;9.200;2023-06-26T10:38:02;31.40;65.00
9486;DHT22;4781;48.776;9.200;2023-06-26T10:40:43;31.20;65.70
9486;DHT22;4781;48.776;9.200;2023-06-26T10:43:13;30.90;65.80
9486;DHT22;4781;48.776;9.200;2023-06-26T10:45:47;30.80;66.00
9486;DHT22;4781;48.776;9.200;2023-06-26T10:48:21;30.70;65.80
9486;DHT22;4781;48.776;9.200;2023-06-26T10:50:50;30.50;65.70
9486;DHT22;4781;48.776;9.200;2023-06-26T10:56:02;29.80;66.00
9486;DHT22;4781;48.776;9.200;2023-06-26T11:01:21;30.10;66.70
9486;DHT22;4781;48.776;9.200;2023-06-26T11:06:35;30.90;66.60
9486;DHT22;4781;48.776;9.200;2023-06-26T11:09:07;31.30;65.40
9486;DHT22;4781;48.776;9.200;2023-06-26T11:11:55;31.60;64.60
9486;DHT22;4781;48.776;9.200;2023-06-26T11:14:28;31.70;64.00
9486;DHT22;4781;48.776;9.200;2023-06-26T11:17:01;31.80;63.40
9486;DHT22;4781;48.776;9.200;2023-06-26T11:19:29;32.00;63.40
9486;DHT22;4781;48.776;9.200;2023-06-26T11:21:59;32.10;62.80
9486;DHT22;4781;48.776;9.200;2023-06-26T11:24:32;32.10;62.70
9486;DHT22;4781;48.776;9.200;2023-06-26T11:27:01;32.10;63.00
9486;DHT22;4781;48.776;9.200;2023-06-26T11:29:31;31.40;63.10
9486;DHT22;4781;48.776;9.200;2023-06-26T11:32:01;31.00;65.60
9486;DHT22;4781;48.776;9.200;2023-06-26T11:34:32;31.50;63.50
9486;DHT22;4781;48.776;9.200;2023-06-26T11:37:01;31.50;62.10
9486;DHT22;4781;48.776;9.200;2023-06-26T11:39:30;31.60;62.60
9486;DHT22;4781;48.776;9.200;2023-06-26T11:42:00;31.50;64.00
9486;DHT22;4781;48.776;9.200;2023-06-26T11:44:31;31.70;64.30
9486;DHT22;4781;48.776;9.200;2023-06-26T11:47:00;31.80;64.40
9486;DHT22;4781;48.776;9.200;2023-06-26T11:49:29;32.10;63.80
9486;DHT22;4781;48.776;9.200;2023-06-26T11:51:58;32.50;64.50
9486;DHT22;4781;48.776;9.200;2023-06-26T11:54:27;32.60;64.00
9486;DHT22;4781;48.776;9.200;2023-06-26T11:56:58;32.80;63.80
9486;DHT22;4781;48.776;9.200;2023-06-26T11:59:38;32.50;64.40
9486;DHT22;4781;48.776;9.200;2023-06-26T12:02:11;32.70;62.60
9486;DHT22;4781;48.776;9.200;2023-06-26T12:04:42;32.80;62.70
9486;DHT22;4781;48.776;9.200;2023-06-26T12:07:13;32.50;64.00
9486;DHT22;4781;48.776;9.200;2023-06-26T12:09:46;32.00;67.10
9486;DHT22;4781;48.776;9.200;2023-06-26T12:12:17;31.80;67.40
9486;DHT22;4781;48.776;9.200;2023-06-26T12:14:45;31.70;68.00
9486;DHT22;4781;48.776;9.200;2023-06-26T12:17:14;31.60;68.30
9486;DHT22;4781;48.776;9.200;2023-06-26T12:19:46;31.60;69.00
9486;DHT22;4781;48.776;9.200;2023-06-26T12:22:16;31.60;68.90
9486;DHT22;4781;48.776;9.200;2023-06-26T12:24:46;31.70;69.60
9486;DHT22;4781;48.776;9.200;2023-06-26T12:27:17;31.80;69.20
9486;DHT22;4781;48.776;9.200;2023-06-26T12:29:54;32.10;69.90
9486;DHT22;4781;48.776;9.200;2023-06-26T12:32:24;31.80;67.90
9486;DHT22;4781;48.776;9.200;2023-06-26T12:34:53;31.80;68.90
9486;DHT22;4781;48.776;9.200;2023-06-26T12:37:23;32.10;69.30
9486;DHT22;4781;48.776;9.200;2023-06-26T12:39:56;32.10;68.70
9486;DHT22;4781;48.776;9.200;2023-06-26T12:42:26;32.20;69.30
9486;DHT22;4781;48.776;9.200;2023-06-26T12:44:55;32.30;69.20
9486;DHT22;4781;48.776;9.200;2023-06-26T12:47:27;32.50;70.40
9486;DHT22;4781;48.776;9.200;2023-06-26T12:49:57;32.30;67.40
9486;DHT22;4781;48.776;9.200;2023-06-26T12:52:26;31.60;69.30
9486;DHT22;4781;48.776;9.200;2023-06-26T12:54:55;32.00;70.20
9486;DHT22;4781;48.776;9.200;2023-06-26T12:57:24;32.30;69.10
9486;DHT22;4781;48.776;9.200;2023-06-26T12:59:53;32.30;67.80
9486;DHT22;4781;48.776;9.200;2023-06-26T13:02:21;32.40;67.60
9486;DHT22;4781;48.776;9.200;2023-06-26T13:04:50;32.40;68.20
9486;DHT22;4781;48.776;9.200;2023-06-26T13:07:18;31.80;67.90
9486;DHT22;4781;48.776;9.200;2023-06-26T13:09:46;32.20;67.30
9486;DHT22;4781;48.776;9.200;2023-06-26T13:12:15;32.20;66.90
9486;DHT22;4781;48.776;9.200;2023-06-26T13:14:43;32.50;67.10
9486;DHT22;4781;48.776;9.200;2023-06-26T13:17:12;32.00;66.90
9486;DHT22;4781;48.776;9.200;2023-06-26T13:19:40;32.00;67.60
9486;DHT22;4781;48.776;9.200;2023-06-26T13:22:10;32.20;66.80
9486;DHT22;4781;48.776;9.200;2023-06-26T13:24:38;32.20;66.00
9486;DHT22;4781;48.776;9.200;2023-06-26T13:27:07;32.30;66.80
9486;DHT22;4781;48.776;9.200;2023-06-26T13:29:36;32.40;66.90
9486;DHT22;4781;48.776;9.200;2023-06-26T13:32:04;32.40;66.20
9486;DHT22;4781;48.776;9.200;2023-06-26T13:34:33;32.30;66.60
9486;DHT22;4781;48.776;9.200;2023-06-26T13:37:01;32.10;65.30
9486;DHT22;4781;48.776;9.200;2023-06-26T13:39:30;32.10;66.30
9486;DHT22;4781;48.776;9.200;2023-06-26T13:41:58;32.20;65.20
9486;DHT22;4781;48.776;9.200;2023-06-26T13:44:27;31.70;64.80
9486;DHT22;4781;48.776;9.200;2023-06-26T13:46:55;31.70;65.50
9486;DHT22;4781;48.776;9.200;2023-06-26T13:49:24;31.70;65.40
9486;DHT22;4781;48.776;9.200;2023-06-26T13:51:52;31.80;65.70
9486;DHT22;4781;48.776;9.200;2023-06-26T13:54:20;31.90;64.50
9486;DHT22;4781;48.776;9.200;2023-06-26T13:56:49;32.00;64.60
9486;DHT22;4781;48.776;9.200;2023-06-26T13:59:17;31.90;62.70
9486;DHT22;4781;48.776;9.200;2023-06-26T14:01:46;31.30;63.00
9486;DHT22;4781;48.776;9.200;2023-06-26T14:04:14;31.10;63.90
9486;DHT22;4781;48.776;9.200;2023-06-26T14:06:42;31.30;61.60
9486;DHT22;4781;48.776;9.200;2023-06-26T14:09:11;31.60;62.80
9486;DHT22;4781;48.776;9.200;2023-06-26T14:11:40;31.90;61.20
9486;DHT22;4781;48.776;9.200;2023-06-26T14:14:08;32.10;59.90
9486;DHT22;4781;48.776;9.200;2023-06-26T14:16:37;31.70;59.10
9486;DHT22;4781;48.776;9.200;2023-06-26T14:19:07;31.00;61.10
9486;DHT22;4781;48.776;9.200;2023-06-26T14:21:37;31.50;62.20
9486;DHT22;4781;48.776;9.200;2023-06-26T14:24:05;31.30;60.20
9486;DHT22;4781;48.776;9.200;2023-06-26T14:26:34;31.60;59.80
9486;DHT22;4781;48.776;9.200;2023-06-26T14:29:03;31.80;59.10
9486;DHT22;4781;48.776;9.200;2023-06-26T14:31:31;31.70;58.70
9486;DHT22;4781;48.776;9.200;2023-06-26T14:34:00;31.60;59.40
9486;DHT22;4781;48.776;9.200;2023-06-26T14:36:29;31.70;59.30
9486;DHT22;4781;48.776;9.200;2023-06-26T14:38:58;31.70;60.10
9486;DHT22;4781;48.776;9.200;2023-06-26T14:41:27;31.80;59.50
9486;DHT22;4781;48.776;9.200;2023-06-26T14:43:55;31.80;59.60
9486;DHT22;4781;48.776;9.200;2023-06-26T14:46:23;31.70;59.10
9486;DHT22;4781;48.776;9.200;2023-06-26T14:48:52;31.80;59.30
9486;DHT22;4781;48.776;9.200;2023-06-26T14:51:22;31.80;59.10
9486;DHT22;4781;48.776;9.200;2023-06-26T14:53:52;31.60;59.00
9486;DHT22;4781;48.776;9.200;2023-06-26T14:56:21;31.50;59.70
9486;DHT22;4781;48.776;9.200;2023-06-26T14:58:50;31.50;60.00
9486;DHT22;4781;48.776;9.200;2023-06-26T15:01:19;31.40;60.20
9486;DHT22;4781;48.776;9.200;2023-06-26T15:03:49;31.30;60.10
9486;DHT22;4781;48.776;9.200;2023-06-26T15:06:17;31.20;60.00
9486;DHT22;4781;48.776;9.200;2023-06-26T15:08:45;31.10;61.00
9486;DHT22;4781;48.776;9.200;2023-06-26T15:11:14;31.10;60.80
9486;DHT22;4781;48.776;9.200;2023-06-26T15:13:42;30.90;61.00
9486;DHT22;4781;48.776;9.200;2023-06-26T15:16:10;31.00;60.60
9486;DHT22;4781;48.776;9.200;2023-06-26T15:18:40;30.80;60.10
9486;DHT22;4781;48.776;9.200;2023-06-26T15:21:08;30.30;61.10
9486;DHT22;4781;48.776;9.200;2023-06-26T15:23:37;30.30;61.90
9486;DHT22;4781;48.776;9.200;2023-06-26T15:26:05;30.30;61.70
9486;DHT22;4781;48.776;9.200;2023-06-26T15:28:33;30.50;62.30
9486;DHT22;4781;48.776;9.200;2023-06-26T15:31:02;30.30;61.90
9486;DHT22;4781;48.776;9.200;2023-06-26T15:33:30;30.20;61.90
9486;DHT22;4781;48.776;9.200;2023-06-26T15:35:59;30.10;61.40
9486;DHT22;4781;48.776;9.200;2023-06-26T15:38:30;29.60;62.20
9486;DHT22;4781;48.776;9.200;2023-06-26T15:40:58;29.50;62.80
9486;DHT22;4781;48.776;9.200;2023-06-26T15:43:26;28.90;63.00
9486;DHT22;4781;48.776;9.200;2023-06-26T15:45:55;29.00;62.60
9486;DHT22;4781;48.776;9.200;2023-06-26T15:48:23;28.90;63.80
9486;DHT22;4781;48.776;9.200;2023-06-26T15:50:52;29.10;63.00
9486;DHT22;4781;48.776;9.200;2023-06-26T15:53:24;29.10;63.00
9486;DHT22;4781;48.776;9.200;2023-06-26T15:56:05;29.00;63.10
9486;DHT22;4781;48.776;9.200;2023-06-26T15:58:34;29.00;62.70
9486;DHT22;4781;48.776;9.200;2023-06-26T16:01:04;28.50;63.10
9486;DHT22;4781;48.776;9.200;2023-06-26T16:03:32;28.40;63.50
9486;DHT22;4781;48.776;9.200;2023-06-26T16:06:01;28.40;63.70
9486;DHT22;4781;48.776;9.200;2023-06-26T16:08:30;28.40;64.10
9486;DHT22;4781;48.776;9.200;2023-06-26T16:10:58;28.30;64.40
9486;DHT22;4781;48.776;9.200;2023-06-26T16:13:27;28.30;64.80
9486;DHT22;4781;48.776;9.200;2023-06-26T16:15:56;28.30;64.60
9486;DHT22;4781;48.776;9.200;2023-06-26T16:18:24;28.10;64.60
9486;DHT22;4781;48.776;9.200;2023-06-26T16:20:53;28.00;64.90
9486;DHT22;4781;48.776;9.200;2023-06-26T16:23:22;27.90;65.00
9486;DHT22;4781;48.776;9.200;2023-06-26T16:25:51;27.80;65.30
9486;DHT22;4781;48.776;9.200;2023-06-26T16:28:19;27.70;65.00
9486;DHT22;4781;48.776;9.200;2023-06-26T16:30:47;27.60;65.20
9486;DHT22;4781;48.776;9.200;2023-06-26T16:33:16;27.60;65.00
9486;DHT22;4781;48.776;9.200;2023-06-26T16:35:44;27.60;64.70
9486;DHT22;4781;48.776;9.200;2023-06-26T16:38:12;27.50;64.70
9486;DHT22;4781;48.776;9.200;2023-06-26T16:40:41;27.50;63.50
9486;DHT22;4781;48.776;9.200;2023-06-26T16:43:09;27.40;63.00
9486;DHT22;4781;48.776;9.200;2023-06-26T16:45:41;27.30;63.40
9486;DHT22;4781;48.776;9.200;2023-06-26T16:48:09;27.40;62.90
9486;DHT22;4781;48.776;9.200;2023-06-26T16:50:37;27.40;62.40
9486;DHT22;4781;48.776;9.200;2023-06-26T16:53:06;27.40;62.40
9486;DHT22;4781;48.776;9.200;2023-06-26T16:55:34;27.40;62.10
9486;DHT22;4781;48.776;9.200;2023-06-26T16:58:03;27.40;62.00
9486;DHT22;4781;48.776;9.200;2023-06-26T17:00:31;27.10;60.20
9486;DHT22;4781;48.776;9.200;2023-06-26T17:03:03;26.90;60.10
9486;DHT22;4781;48.776;9.200;2023-06-26T17:05:31;26.80;59.30
9486;DHT22;4781;48.776;9.200;2023-06-26T17:08:00;26.80;59.00
9486;DHT22;4781;48.776;9.200;2023-06-26T17:10:29;26.70;58.60
9486;DHT22;4781;48.776;9.200;2023-06-26T17:12:57;26.60;58.50
9486;DHT22;4781;48.776;9.200;2023-06-26T17:15:26;26.50;58.60
9486;DHT22;4781;48.776;9.200;2023-06-26T17:17:54;26.40;58.00
9486;DHT22;4781;48.776;9.200;2023-06-26T17:20:23;26.30;56.90
9486;DHT22;4781;48.776;9.200;2023-06-26T17:22:51;26.20;56.80
9486;DHT22;4781;48.776;9.200;2023-06-26T17:25:19;26.20;56.70
9486;DHT22;4781;48.776;9.200;2023-06-26T17:27:48;26.10;56.60
9486;DHT22;4781;48.776;9.200;2023-06-26T17:30:16;26.10;56.00
9486;DHT22;4781;48.776;9.200;2023-06-26T17:32:44;26.00;56.30
9486;DHT22;4781;48.776;9.200;2023-06-26T17:35:13;25.80;56.00
9486;DHT22;4781;48.776;9.200;2023-06-26T17:37:42;25.80;56.20
9486;DHT22;4781;48.776;9.200;2023-06-26T17:40:11;25.70;56.10
9486;DHT22;4781;48.776;9.200;2023-06-26T17:42:39;25.70;56.70
9486;DHT22;4781;48.776;9.200;2023-06-26T17:45:10;25.70;56.20
9486;DHT22;4781;48.776;9.200;2023-06-26T17:47:40;25.60;56.10
9486;DHT22;4781;48.776;9.200;2023-06-26T17:50:09;25.50;55.60
9486;DHT22;4781;48.776;9.200;2023-06-26T17:52:40;25.30;56.10
9486;DHT22;4781;48.776;9.200;2023-06-26T17:55:09;25.20;55.90
9486;DHT22;4781;48.776;9.200;2023-06-26T17:57:38;25.20;56.50